Terminal Aerodrome Forecast
Issued by NWS

Home | Current Version | Previous Version | Text Only | Print | Product List | Glossary Off
Versions: 1 2 3 4 5 6 7 8 9 10 11 12 13 14 15 16 17 18 19 20 21

000
FTUS43 KBIS 061456 AAB
TAFJMS
TAF AMD
KJMS 061456Z 0615/0712 30032G42KT 1/4SM SN BLSN OVC015
     FM062200 30033G44KT 1SM BLSN VCSH OVC010
     FM070300 30025G35KT 4SM BLSN OVC050=

USA.gov is the U.S. government's official web portal to all federal, state and local government web resources and services.